Valley View, TX (76272)

8:17 PM CDT on July 31, 2015 (GMT -0500)
none | | Change Station
CLOSE
Current Station
Personal Weather Station
Location: Valley View, TX
Elevation: 679 ft
Nearby Weather Stations

Elev 679 ft 33.45 °N, 97.05 °W | Updated 9 seconds ago

Clear
Clear
85.5 °F
Feels Like 93 °F
N
0.0
Wind Variable Wind from South
Gusts 0.0 mph

Today
High -- | Low -- °F
--% Chance of Precip.
Yesterday
High -- | Low -- °F
Precip. -- in
6:40 AM 8:29 PM
Waxing Gibbous, 99% visible
Pressure 30.07 in
Visibility 10.0 miles
Clouds Scattered Clouds 11000 ft
Heat Index 93 °F
Dew Point 74 °F
Humidity 68%
Rainfall 0.00 in
Snow Depth Not available.
UV 0 out of 12
Pollen 4.60 out of 12
Air Quality Not available.
Flu Activity Not available.
METAR KGLE 010055Z AUTO 01003KT 10SM SCT110 30/20 A3007 RMK AO2 T02960203

More Conditions Fewer Conditions

Pressure 30.07 in
Visibility 10.0 miles
Clouds Scattered Clouds 11000 ft
Heat Index 93 °F
Dew Point 74 °F
Humidity 68%
Rainfall 0.00 in
Snow Depth Not available.
UV 0 out of 12
Pollen 4.60 out of 12
Air Quality Not available.
Flu Activity Not available.
METAR KGLE 010055Z AUTO 01003KT 10SM SCT110 30/20 A3007 RMK AO2 T02960203

More Conditions Fewer Conditions

Nowcast | as of 6:02 PM CDT on July 31, 2015

Isolated to scattered thunderstorms will occur northwest of a Comanche to Meridian to Bowie line through 9 PM. Besides cloud to ground lightning...some of these storms will produce wind gusts over 40 mph and heavy rain as they move south at 10 to 15 mph. Otherwise...expect temperatures to fall into the mid 80s to lower 90s by 9 PM.

×

10-Day Weather Forecast

×

Almanac

Astronomy

Jul. 31, 2015 Rise Set
Actual Time
Civil Twilight
Nautical Twilight
Astronomical Twilight
Moon
Length of Visible Light
Length of Day
Tomorrow will be .
, % of the Moon is Illuminated

Today's Extremes

State Highs State Lows

Community

WunderPhotos

Upload Photos

1,842,792 photos uploaded!

WunderBlogs® & News

Nearby

Air Quality

  Air Quality AQ Index Pollutant
Not available.

Snow Depth

Station Depth Elevation

Earthquake Activity

City Distance Mag. Time & Date
Minimum magnitude displayed is 2.5.

Coastal Water Temperatures

Place Temperature

Stations

Nearby Weather Stations

Station Location Temp. Windchill Dew Point Humidity Wind Precip. Elev Updated Type